sensor_id;sensor_type;location;lat;lon;timestamp;P1;durP1;ratioP1;P2;durP2;ratioP2
5491;SDS011;2768;53.540;10.224;2022-09-29T00:00:53;8.80;;;7.90;;
5491;SDS011;2768;53.540;10.224;2022-09-29T00:06:49;9.27;;;8.37;;
5491;SDS011;2768;53.540;10.224;2022-09-29T00:12:47;9.37;;;8.47;;
5491;SDS011;2768;53.540;10.224;2022-09-29T00:18:42;7.93;;;7.23;;
5491;SDS011;2768;53.540;10.224;2022-09-29T00:24:46;8.17;;;7.47;;
5491;SDS011;2768;53.540;10.224;2022-09-29T00:30:50;8.10;;;7.40;;
5491;SDS011;2768;53.540;10.224;2022-09-29T00:36:48;7.80;;;7.13;;
5491;SDS011;2768;53.540;10.224;2022-09-29T00:42:45;9.00;;;8.07;;
5491;SDS011;2768;53.540;10.224;2022-09-29T00:48:48;8.83;;;7.93;;
5491;SDS011;2768;53.540;10.224;2022-09-29T00:54:48;8.60;;;7.80;;
5491;SDS011;2768;53.540;10.224;2022-09-29T01:00:53;8.83;;;7.80;;
5491;SDS011;2768;53.540;10.224;2022-09-29T01:06:48;7.83;;;7.03;;
5491;SDS011;2768;53.540;10.224;2022-09-29T01:12:45;7.73;;;6.80;;
5491;SDS011;2768;53.540;10.224;2022-09-29T01:18:42;8.03;;;7.23;;
5491;SDS011;2768;53.540;10.224;2022-09-29T01:24:47;7.80;;;7.00;;
5491;SDS011;2768;53.540;10.224;2022-09-29T01:31:02;7.97;;;7.20;;
5491;SDS011;2768;53.540;10.224;2022-09-29T01:37:11;7.00;;;6.40;;
5491;SDS011;2768;53.540;10.224;2022-09-29T01:43:17;7.90;;;7.10;;
5491;SDS011;2768;53.540;10.224;2022-09-29T01:49:20;7.43;;;6.73;;
5491;SDS011;2768;53.540;10.224;2022-09-29T01:55:22;8.27;;;7.47;;
5491;SDS011;2768;53.540;10.224;2022-09-29T02:01:23;6.43;;;5.80;;
5491;SDS011;2768;53.540;10.224;2022-09-29T02:07:23;7.50;;;6.77;;
5491;SDS011;2768;53.540;10.224;2022-09-29T02:13:21;7.00;;;6.27;;
5491;SDS011;2768;53.540;10.224;2022-09-29T02:19:21;7.90;;;7.20;;
5491;SDS011;2768;53.540;10.224;2022-09-29T02:25:20;7.60;;;6.90;;
5491;SDS011;2768;53.540;10.224;2022-09-29T02:31:18;7.53;;;6.50;;
5491;SDS011;2768;53.540;10.224;2022-09-29T02:37:18;6.97;;;6.37;;
5491;SDS011;2768;53.540;10.224;2022-09-29T02:43:39;7.40;;;6.80;;
5491;SDS011;2768;53.540;10.224;2022-09-29T02:50:18;7.40;;;6.70;;
5491;SDS011;2768;53.540;10.224;2022-09-29T02:56:43;7.40;;;6.70;;
5491;SDS011;2768;53.540;10.224;2022-09-29T03:03:00;6.67;;;6.10;;
5491;SDS011;2768;53.540;10.224;2022-09-29T03:08:58;6.80;;;6.20;;
5491;SDS011;2768;53.540;10.224;2022-09-29T03:15:02;6.63;;;6.07;;
5491;SDS011;2768;53.540;10.224;2022-09-29T03:21:00;6.87;;;6.27;;
5491;SDS011;2768;53.540;10.224;2022-09-29T03:26:55;6.77;;;6.27;;
5491;SDS011;2768;53.540;10.224;2022-09-29T03:32:55;7.40;;;6.53;;
5491;SDS011;2768;53.540;10.224;2022-09-29T03:38:51;6.60;;;6.00;;
5491;SDS011;2768;53.540;10.224;2022-09-29T03:44:46;6.57;;;5.93;;
5491;SDS011;2768;53.540;10.224;2022-09-29T03:50:41;7.63;;;6.70;;
5491;SDS011;2768;53.540;10.224;2022-09-29T03:56:36;7.43;;;6.73;;
5491;SDS011;2768;53.540;10.224;2022-09-29T04:02:29;7.13;;;6.43;;
5491;SDS011;2768;53.540;10.224;2022-09-29T04:08:25;6.63;;;6.03;;
5491;SDS011;2768;53.540;10.224;2022-09-29T04:14:19;6.70;;;6.10;;
5491;SDS011;2768;53.540;10.224;2022-09-29T04:20:13;7.73;;;6.93;;
5491;SDS011;2768;53.540;10.224;2022-09-29T04:26:06;8.63;;;6.87;;
5491;SDS011;2768;53.540;10.224;2022-09-29T04:32:01;7.87;;;7.07;;
5491;SDS011;2768;53.540;10.224;2022-09-29T04:37:56;8.43;;;6.60;;
5491;SDS011;2768;53.540;10.224;2022-09-29T04:43:49;8.37;;;7.57;;
5491;SDS011;2768;53.540;10.224;2022-09-29T04:49:44;8.50;;;7.70;;
5491;SDS011;2768;53.540;10.224;2022-09-29T04:55:37;7.00;;;6.30;;
5491;SDS011;2768;53.540;10.224;2022-09-29T05:01:32;8.03;;;7.23;;
5491;SDS011;2768;53.540;10.224;2022-09-29T05:07:27;10.50;;;8.20;;
5491;SDS011;2768;53.540;10.224;2022-09-29T05:13:20;7.50;;;6.80;;
5491;SDS011;2768;53.540;10.224;2022-09-29T05:19:15;7.00;;;6.30;;
5491;SDS011;2768;53.540;10.224;2022-09-29T05:25:09;7.93;;;7.23;;
5491;SDS011;2768;53.540;10.224;2022-09-29T05:31:03;9.70;;;7.43;;
5491;SDS011;2768;53.540;10.224;2022-09-29T05:36:58;8.13;;;7.33;;
5491;SDS011;2768;53.540;10.224;2022-09-29T05:42:53;11.57;;;8.50;;
5491;SDS011;2768;53.540;10.224;2022-09-29T05:48:46;8.30;;;7.50;;
5491;SDS011;2768;53.540;10.224;2022-09-29T05:54:41;9.23;;;8.33;;
5491;SDS011;2768;53.540;10.224;2022-09-29T06:00:36;9.17;;;8.10;;
5491;SDS011;2768;53.540;10.224;2022-09-29T06:06:29;10.90;;;7.70;;
5491;SDS011;2768;53.540;10.224;2022-09-29T06:12:23;12.43;;;8.23;;
5491;SDS011;2768;53.540;10.224;2022-09-29T06:18:17;10.37;;;8.10;;
5491;SDS011;2768;53.540;10.224;2022-09-29T06:24:11;14.40;;;9.70;;
5491;SDS011;2768;53.540;10.224;2022-09-29T06:30:04;9.90;;;8.80;;
5491;SDS011;2768;53.540;10.224;2022-09-29T06:36:01;11.43;;;9.87;;
5491;SDS011;2768;53.540;10.224;2022-09-29T06:42:14;11.10;;;9.53;;
5491;SDS011;2768;53.540;10.224;2022-09-29T06:48:07;11.10;;;10.00;;
5491;SDS011;2768;53.540;10.224;2022-09-29T06:54:03;12.00;;;10.70;;
5491;SDS011;2768;53.540;10.224;2022-09-29T07:00:03;12.67;;;11.00;;
5491;SDS011;2768;53.540;10.224;2022-09-29T07:06:00;14.67;;;12.70;;
5491;SDS011;2768;53.540;10.224;2022-09-29T07:12:12;12.43;;;11.00;;
5491;SDS011;2768;53.540;10.224;2022-09-29T07:18:05;16.80;;;11.70;;
5491;SDS011;2768;53.540;10.224;2022-09-29T07:24:00;13.50;;;11.90;;
5491;SDS011;2768;53.540;10.224;2022-09-29T07:29:55;15.97;;;10.97;;
5491;SDS011;2768;53.540;10.224;2022-09-29T07:35:54;13.87;;;12.37;;
5491;SDS011;2768;53.540;10.224;2022-09-29T07:41:50;14.23;;;12.40;;
5491;SDS011;2768;53.540;10.224;2022-09-29T07:47:44;13.00;;;11.60;;
5491;SDS011;2768;53.540;10.224;2022-09-29T07:53:38;14.13;;;11.33;;
5491;SDS011;2768;53.540;10.224;2022-09-29T07:59:31;14.57;;;12.97;;
5491;SDS011;2768;53.540;10.224;2022-09-29T08:05:26;14.07;;;12.10;;
5491;SDS011;2768;53.540;10.224;2022-09-29T08:11:19;14.83;;;11.80;;
5491;SDS011;2768;53.540;10.224;2022-09-29T08:17:22;14.27;;;11.73;;
5491;SDS011;2768;53.540;10.224;2022-09-29T08:23:17;14.57;;;11.97;;
5491;SDS011;2768;53.540;10.224;2022-09-29T08:29:11;13.57;;;12.17;;
5491;SDS011;2768;53.540;10.224;2022-09-29T08:35:08;14.13;;;12.70;;
5491;SDS011;2768;53.540;10.224;2022-09-29T08:41:03;15.20;;;13.37;;
5491;SDS011;2768;53.540;10.224;2022-09-29T08:46:58;16.70;;;12.80;;
5491;SDS011;2768;53.540;10.224;2022-09-29T08:53:02;13.43;;;12.03;;
5491;SDS011;2768;53.540;10.224;2022-09-29T08:59:14;14.60;;;12.40;;
5491;SDS011;2768;53.540;10.224;2022-09-29T09:05:16;13.97;;;12.57;;
5491;SDS011;2768;53.540;10.224;2022-09-29T09:11:24;13.10;;;11.10;;
5491;SDS011;2768;53.540;10.224;2022-09-29T09:17:30;13.10;;;11.70;;
5491;SDS011;2768;53.540;10.224;2022-09-29T09:23:40;13.90;;;12.50;;
5491;SDS011;2768;53.540;10.224;2022-09-29T09:29:47;15.93;;;10.67;;
5491;SDS011;2768;53.540;10.224;2022-09-29T09:35:44;14.63;;;10.87;;
5491;SDS011;2768;53.540;10.224;2022-09-29T09:41:50;12.97;;;11.37;;
5491;SDS011;2768;53.540;10.224;2022-09-29T09:47:47;12.43;;;11.13;;
5491;SDS011;2768;53.540;10.224;2022-09-29T09:53:46;14.90;;;12.40;;
5491;SDS011;2768;53.540;10.224;2022-09-29T09:59:45;13.00;;;11.53;;
5491;SDS011;2768;53.540;10.224;2022-09-29T10:05:47;13.43;;;12.03;;
5491;SDS011;2768;53.540;10.224;2022-09-29T10:11:43;15.00;;;11.90;;
5491;SDS011;2768;53.540;10.224;2022-09-29T10:17:38;16.60;;;12.70;;
5491;SDS011;2768;53.540;10.224;2022-09-29T10:23:34;16.00;;;13.13;;
5491;SDS011;2768;53.540;10.224;2022-09-29T10:29:32;15.80;;;12.60;;
5491;SDS011;2768;53.540;10.224;2022-09-29T10:35:31;17.40;;;12.40;;
5491;SDS011;2768;53.540;10.224;2022-09-29T10:41:28;15.03;;;13.23;;
5491;SDS011;2768;53.540;10.224;2022-09-29T10:47:23;17.53;;;14.23;;
5491;SDS011;2768;53.540;10.224;2022-09-29T10:53:18;17.03;;;13.83;;
5491;SDS011;2768;53.540;10.224;2022-09-29T10:59:16;16.40;;;12.77;;
5491;SDS011;2768;53.540;10.224;2022-09-29T11:05:15;9.67;;;8.53;;
5491;SDS011;2768;53.540;10.224;2022-09-29T11:11:16;6.00;;;5.30;;
5491;SDS011;2768;53.540;10.224;2022-09-29T11:17:19;8.10;;;5.03;;
5491;SDS011;2768;53.540;10.224;2022-09-29T11:23:19;5.40;;;4.80;;
5491;SDS011;2768;53.540;10.224;2022-09-29T11:29:25;6.50;;;5.10;;
5491;SDS011;2768;53.540;10.224;2022-09-29T11:35:28;8.73;;;6.30;;
5491;SDS011;2768;53.540;10.224;2022-09-29T11:41:39;11.17;;;7.10;;
5491;SDS011;2768;53.540;10.224;2022-09-29T11:47:49;8.50;;;6.90;;
5491;SDS011;2768;53.540;10.224;2022-09-29T11:54:03;9.90;;;7.57;;
5491;SDS011;2768;53.540;10.224;2022-09-29T12:00:09;8.80;;;6.90;;
5491;SDS011;2768;53.540;10.224;2022-09-29T12:06:17;9.20;;;7.60;;
5491;SDS011;2768;53.540;10.224;2022-09-29T12:12:24;8.80;;;7.60;;
5491;SDS011;2768;53.540;10.224;2022-09-29T12:18:29;8.70;;;7.30;;
5491;SDS011;2768;53.540;10.224;2022-09-29T12:24:31;9.50;;;8.00;;
5491;SDS011;2768;53.540;10.224;2022-09-29T12:30:27;9.10;;;7.90;;
5491;SDS011;2768;53.540;10.224;2022-09-29T12:36:30;9.50;;;8.53;;
5491;SDS011;2768;53.540;10.224;2022-09-29T12:42:38;9.60;;;8.60;;
5491;SDS011;2768;53.540;10.224;2022-09-29T12:48:43;11.43;;;9.43;;
5491;SDS011;2768;53.540;10.224;2022-09-29T12:54:46;10.73;;;9.63;;
5491;SDS011;2768;53.540;10.224;2022-09-29T13:00:43;14.27;;;9.90;;
5491;SDS011;2768;53.540;10.224;2022-09-29T13:06:53;9.90;;;8.90;;
5491;SDS011;2768;53.540;10.224;2022-09-29T13:13:12;9.73;;;8.73;;
5491;SDS011;2768;53.540;10.224;2022-09-29T13:19:24;10.83;;;9.37;;
5491;SDS011;2768;53.540;10.224;2022-09-29T13:25:52;11.67;;;10.07;;
5491;SDS011;2768;53.540;10.224;2022-09-29T13:31:55;13.67;;;10.10;;
5491;SDS011;2768;53.540;10.224;2022-09-29T13:37:49;13.43;;;12.10;;
5491;SDS011;2768;53.540;10.224;2022-09-29T13:50:01;10.83;;;9.70;;
5491;SDS011;2768;53.540;10.224;2022-09-29T13:56:10;11.00;;;9.67;;
5491;SDS011;2768;53.540;10.224;2022-09-29T14:02:17;10.33;;;9.23;;
5491;SDS011;2768;53.540;10.224;2022-09-29T14:08:18;11.13;;;9.60;;
5491;SDS011;2768;53.540;10.224;2022-09-29T14:14:21;9.57;;;8.17;;
5491;SDS011;2768;53.540;10.224;2022-09-29T14:20:18;9.83;;;8.83;;
5491;SDS011;2768;53.540;10.224;2022-09-29T14:32:38;8.67;;;7.77;;
5491;SDS011;2768;53.540;10.224;2022-09-29T14:38:36;9.13;;;8.33;;
5491;SDS011;2768;53.540;10.224;2022-09-29T14:44:35;10.90;;;8.43;;
5491;SDS011;2768;53.540;10.224;2022-09-29T14:50:44;7.93;;;7.17;;
5491;SDS011;2768;53.540;10.224;2022-09-29T14:57:03;8.63;;;7.47;;
5491;SDS011;2768;53.540;10.224;2022-09-29T15:03:04;8.33;;;7.50;;
5491;SDS011;2768;53.540;10.224;2022-09-29T15:09:19;7.67;;;6.97;;
5491;SDS011;2768;53.540;10.224;2022-09-29T15:15:26;7.10;;;6.43;;
5491;SDS011;2768;53.540;10.224;2022-09-29T15:21:31;9.13;;;7.03;;
5491;SDS011;2768;53.540;10.224;2022-09-29T15:27:33;10.17;;;7.50;;
5491;SDS011;2768;53.540;10.224;2022-09-29T15:33:28;7.90;;;7.20;;
5491;SDS011;2768;53.540;10.224;2022-09-29T15:39:40;6.10;;;5.57;;
5491;SDS011;2768;53.540;10.224;2022-09-29T15:45:35;6.90;;;5.77;;
5491;SDS011;2768;53.540;10.224;2022-09-29T15:51:28;7.07;;;6.37;;
5491;SDS011;2768;53.540;10.224;2022-09-29T15:57:28;5.93;;;5.50;;
5491;SDS011;2768;53.540;10.224;2022-09-29T16:03:38;8.10;;;7.43;;
5491;SDS011;2768;53.540;10.224;2022-09-29T16:09:35;7.60;;;6.87;;
5491;SDS011;2768;53.540;10.224;2022-09-29T16:15:31;7.47;;;6.70;;
5491;SDS011;2768;53.540;10.224;2022-09-29T16:21:30;7.80;;;7.10;;
5491;SDS011;2768;53.540;10.224;2022-09-29T16:27:45;7.77;;;7.07;;
5491;SDS011;2768;53.540;10.224;2022-09-29T16:33:51;7.00;;;6.40;;
5491;SDS011;2768;53.540;10.224;2022-09-29T16:39:47;6.17;;;5.60;;
5491;SDS011;2768;53.540;10.224;2022-09-29T16:45:40;7.07;;;6.40;;
5491;SDS011;2768;53.540;10.224;2022-09-29T16:51:39;9.20;;;6.90;;
5491;SDS011;2768;53.540;10.224;2022-09-29T16:57:35;7.17;;;6.50;;
5491;SDS011;2768;53.540;10.224;2022-09-29T17:03:46;7.50;;;6.80;;
5491;SDS011;2768;53.540;10.224;2022-09-29T17:09:40;7.47;;;6.70;;
5491;SDS011;2768;53.540;10.224;2022-09-29T17:15:36;10.27;;;9.27;;
5491;SDS011;2768;53.540;10.224;2022-09-29T17:21:30;7.23;;;6.63;;
5491;SDS011;2768;53.540;10.224;2022-09-29T17:27:28;7.70;;;7.00;;
5491;SDS011;2768;53.540;10.224;2022-09-29T17:33:39;7.63;;;6.93;;
5491;SDS011;2768;53.540;10.224;2022-09-29T17:39:32;6.60;;;5.90;;
5491;SDS011;2768;53.540;10.224;2022-09-29T17:45:27;7.40;;;6.53;;
5491;SDS011;2768;53.540;10.224;2022-09-29T17:51:22;9.60;;;8.60;;
5491;SDS011;2768;53.540;10.224;2022-09-29T17:57:18;12.90;;;10.73;;
5491;SDS011;2768;53.540;10.224;2022-09-29T18:03:18;10.60;;;9.50;;
5491;SDS011;2768;53.540;10.224;2022-09-29T18:09:13;10.57;;;9.40;;
5491;SDS011;2768;53.540;10.224;2022-09-29T18:15:08;14.30;;;10.00;;
5491;SDS011;2768;53.540;10.224;2022-09-29T18:21:03;11.70;;;10.40;;
5491;SDS011;2768;53.540;10.224;2022-09-29T18:26:58;16.40;;;14.70;;
5491;SDS011;2768;53.540;10.224;2022-09-29T18:32:52;15.40;;;13.33;;
5491;SDS011;2768;53.540;10.224;2022-09-29T18:38:50;15.20;;;13.60;;
5491;SDS011;2768;53.540;10.224;2022-09-29T18:44:44;14.40;;;12.60;;
5491;SDS011;2768;53.540;10.224;2022-09-29T18:50:39;15.83;;;14.13;;
5491;SDS011;2768;53.540;10.224;2022-09-29T18:56:35;20.37;;;17.50;;
5491;SDS011;2768;53.540;10.224;2022-09-29T19:02:29;16.83;;;15.07;;
5491;SDS011;2768;53.540;10.224;2022-09-29T19:08:22;16.07;;;14.27;;
5491;SDS011;2768;53.540;10.224;2022-09-29T19:14:17;16.20;;;14.17;;
5491;SDS011;2768;53.540;10.224;2022-09-29T19:20:14;15.43;;;13.80;;
5491;SDS011;2768;53.540;10.224;2022-09-29T19:26:09;16.27;;;14.70;;
5491;SDS011;2768;53.540;10.224;2022-09-29T19:32:05;14.17;;;12.67;;
5491;SDS011;2768;53.540;10.224;2022-09-29T19:37:58;14.53;;;13.13;;
5491;SDS011;2768;53.540;10.224;2022-09-29T19:43:52;13.50;;;12.13;;
5491;SDS011;2768;53.540;10.224;2022-09-29T19:49:47;12.50;;;11.30;;
5491;SDS011;2768;53.540;10.224;2022-09-29T19:56:05;13.43;;;11.30;;
5491;SDS011;2768;53.540;10.224;2022-09-29T20:02:00;10.97;;;9.87;;
5491;SDS011;2768;53.540;10.224;2022-09-29T20:07:57;13.20;;;10.53;;
5491;SDS011;2768;53.540;10.224;2022-09-29T20:13:50;11.07;;;9.97;;
5491;SDS011;2768;53.540;10.224;2022-09-29T20:19:43;10.40;;;9.37;;
5491;SDS011;2768;53.540;10.224;2022-09-29T20:25:39;8.93;;;8.03;;
5491;SDS011;2768;53.540;10.224;2022-09-29T20:31:33;8.23;;;7.40;;
5491;SDS011;2768;53.540;10.224;2022-09-29T20:37:28;8.60;;;7.80;;
5491;SDS011;2768;53.540;10.224;2022-09-29T20:43:23;7.40;;;6.70;;
5491;SDS011;2768;53.540;10.224;2022-09-29T20:49:16;7.40;;;6.60;;
5491;SDS011;2768;53.540;10.224;2022-09-29T20:55:09;8.87;;;7.97;;
5491;SDS011;2768;53.540;10.224;2022-09-29T21:01:08;7.67;;;6.87;;
5491;SDS011;2768;53.540;10.224;2022-09-29T21:07:04;7.90;;;6.63;;
5491;SDS011;2768;53.540;10.224;2022-09-29T21:13:18;7.13;;;6.43;;
5491;SDS011;2768;53.540;10.224;2022-09-29T21:19:16;8.00;;;7.20;;
5491;SDS011;2768;53.540;10.224;2022-09-29T21:25:17;8.30;;;6.87;;
5491;SDS011;2768;53.540;10.224;2022-09-29T21:31:10;8.20;;;6.70;;
5491;SDS011;2768;53.540;10.224;2022-09-29T21:37:06;9.07;;;7.50;;
5491;SDS011;2768;53.540;10.224;2022-09-29T21:43:00;7.47;;;5.90;;
5491;SDS011;2768;53.540;10.224;2022-09-29T21:48:54;6.70;;;6.10;;
5491;SDS011;2768;53.540;10.224;2022-09-29T21:54:50;7.33;;;6.10;;
5491;SDS011;2768;53.540;10.224;2022-09-29T22:00:43;7.17;;;6.47;;
5491;SDS011;2768;53.540;10.224;2022-09-29T22:06:38;6.67;;;6.07;;
5491;SDS011;2768;53.540;10.224;2022-09-29T22:12:37;7.47;;;6.17;;
5491;SDS011;2768;53.540;10.224;2022-09-29T22:18:30;7.07;;;6.47;;
5491;SDS011;2768;53.540;10.224;2022-09-29T22:24:31;7.10;;;6.13;;
5491;SDS011;2768;53.540;10.224;2022-09-29T22:30:26;7.43;;;6.20;;
5491;SDS011;2768;53.540;10.224;2022-09-29T22:36:19;7.73;;;5.37;;
5491;SDS011;2768;53.540;10.224;2022-09-29T22:42:13;8.03;;;6.67;;
5491;SDS011;2768;53.540;10.224;2022-09-29T22:48:08;7.33;;;6.37;;
5491;SDS011;2768;53.540;10.224;2022-09-29T22:54:01;8.13;;;6.33;;
5491;SDS011;2768;53.540;10.224;2022-09-29T22:59:54;7.40;;;5.87;;
5491;SDS011;2768;53.540;10.224;2022-09-29T23:05:49;7.20;;;6.50;;
5491;SDS011;2768;53.540;10.224;2022-09-29T23:11:48;7.07;;;6.20;;
5491;SDS011;2768;53.540;10.224;2022-09-29T23:17:42;5.33;;;4.83;;
5491;SDS011;2768;53.540;10.224;2022-09-29T23:23:37;6.43;;;5.10;;
5491;SDS011;2768;53.540;10.224;2022-09-29T23:29:31;6.33;;;5.73;;
5491;SDS011;2768;53.540;10.224;2022-09-29T23:35:24;6.77;;;6.17;;
5491;SDS011;2768;53.540;10.224;2022-09-29T23:41:19;6.40;;;5.40;;
5491;SDS011;2768;53.540;10.224;2022-09-29T23:47:12;5.63;;;5.23;;
5491;SDS011;2768;53.540;10.224;2022-09-29T23:53:05;7.10;;;5.97;;
5491;SDS011;2768;53.540;10.224;2022-09-29T23:59:00;6.50;;;5.83;;
